Time;durP1;ratioP1;P1;durP2;ratioP2;P2;SDS_P1;SDS_P2;PMS_P1;PMS_P2;Temp;Humidity;BMP_temperature;BMP_pressure;BME280_temperature;BME280_humidity;BME280_pressure;Samples;Min_cycle;Max_cycle;Signal;HPM_P1;HPM_P2
2023/01/10 00:00:35;;;;;;;22.87;9.23;;;;;;;;;;5006952;28;20418;-44
2023/01/10 00:03:02;;;;;;;17.60;9.10;;;;;;;;;;5013813;28;20845;-43
2023/01/10 00:05:28;;;;;;;12.10;8.63;;;;;;;;;;5012012;28;20323;-43
2023/01/10 00:07:54;;;;;;;18.93;8.77;;;;;;;;;;5013438;28;20510;-43
2023/01/10 00:10:20;;;;;;;20.75;9.77;;;;;;;;;;5013996;28;20786;-43
2023/01/10 00:15:35;;;;;;;18.48;9.73;;;;;;;;;;5008803;28;20485;-43
2023/01/10 00:18:00;;;;;;;16.13;9.25;;;;;;;;;;5013086;28;20207;-43
2023/01/10 00:20:26;;;;;;;18.30;8.50;;;;;;;;;;5011903;28;20180;-43
2023/01/10 00:22:53;;;;;;;24.35;11.18;;;;;;;;;;5013366;28;20418;-43
2023/01/10 00:25:20;;;;;;;18.17;8.77;;;;;;;;;;5008465;28;20172;-43
2023/01/10 00:27:48;;;;;;;17.60;8.23;;;;;;;;;;5012867;28;20172;-44
2023/01/10 00:30:14;;;;;;;12.73;8.77;;;;;;;;;;5013431;28;20418;-43
2023/01/10 00:32:44;;;;;;;15.33;8.47;;;;;;;;;;5012057;28;20407;-44
2023/01/10 00:35:10;;;;;;;27.27;9.02;;;;;;;;;;5005410;28;20461;-43
2023/01/10 00:37:37;;;;;;;16.35;8.00;;;;;;;;;;5012875;28;20173;-44
2023/01/10 00:40:03;;;;;;;13.82;7.95;;;;;;;;;;5013040;28;20218;-44
2023/01/10 00:45:15;;;;;;;23.33;7.35;;;;;;;;;;4997700;28;20394;-43
2023/01/10 00:47:41;;;;;;;16.25;7.25;;;;;;;;;;5011191;28;20172;-43
2023/01/10 00:50:07;;;;;;;21.47;7.10;;;;;;;;;;5012771;28;20196;-44
2023/01/10 00:52:33;;;;;;;19.65;7.93;;;;;;;;;;5009580;28;20478;-44
2023/01/10 00:54:59;;;;;;;13.00;8.07;;;;;;;;;;5010799;28;20168;-43
2023/01/10 00:57:25;;;;;;;18.67;8.10;;;;;;;;;;5012806;28;20765;-43
2023/01/10 00:59:51;;;;;;;17.50;7.57;;;;;;;;;;5004585;28;20582;-43
2023/01/10 01:02:17;;;;;;;19.60;7.20;;;;;;;;;;5011567;28;20415;-43
2023/01/10 01:04:43;;;;;;;12.53;6.80;;;;;;;;;;5012797;28;20415;-43
2023/01/10 01:07:09;;;;;;;10.10;6.10;;;;;;;;;;4999755;28;20407;-44
2023/01/10 01:10:25;;;;;;;16.50;6.63;;;;;;;;;;5012455;28;20442;-44
2023/01/10 01:12:21;;;;;;;12.23;5.60;;;;;;;;;;5005971;28;20416;-43
2023/01/10 01:14:47;;;;;;;10.67;6.03;;;;;;;;;;5012527;28;20465;-44
2023/01/10 01:17:13;;;;;;;26.17;6.40;;;;;;;;;;5012303;28;20820;-43
2023/01/10 01:19:39;;;;;;;11.40;6.40;;;;;;;;;;5009242;28;20479;-43
2023/01/10 01:22:04;;;;;;;16.93;5.97;;;;;;;;;;5012249;28;20418;-43
2023/01/10 01:24:30;;;;;;;10.60;5.63;;;;;;;;;;5006157;28;20473;-43
2023/01/10 01:26:56;;;;;;;13.97;6.03;;;;;;;;;;5012362;28;20412;-43
2023/01/10 01:29:23;;;;;;;11.50;5.70;;;;;;;;;;5012026;28;20447;-43
2023/01/10 01:31:49;;;;;;;14.38;6.90;;;;;;;;;;5009317;28;20847;-44
2023/01/10 01:34:15;;;;;;;17.13;5.80;;;;;;;;;;5012259;28;20691;-43
2023/01/10 01:36:41;;;;;;;13.23;5.22;;;;;;;;;;5012198;28;20800;-43
2023/01/10 01:39:07;;;;;;;7.30;5.70;;;;;;;;;;5011909;28;20687;-43
2023/01/10 01:44:18;;;;;;;9.30;5.37;;;;;;;;;;5006644;28;20453;-43
2023/01/10 01:46:46;;;;;;;26.27;6.17;;;;;;;;;;5009218;28;20510;-43
2023/01/10 01:49:18;;;;;;;18.10;5.07;;;;;;;;;;5011848;28;20431;-43
2023/01/10 01:51:46;;;;;;;10.85;4.75;;;;;;;;;;5011903;28;20192;-43
2023/01/10 01:54:13;;;;;;;14.95;4.95;;;;;;;;;;5011931;28;20216;-43
2023/01/10 01:56:41;;;;;;;7.10;4.57;;;;;;;;;;5003958;28;20184;-43
2023/01/10 01:59:17;;;;;;;7.00;4.87;;;;;;;;;;5010228;28;20236;-43
2023/01/10 02:01:45;;;;;;;21.97;5.03;;;;;;;;;;5011276;28;20922;-43
2023/01/10 02:04:31;;;;;;;11.83;5.30;;;;;;;;;;4999070;28;20846;-43
2023/01/10 02:06:58;;;;;;;9.52;4.82;;;;;;;;;;5011253;28;20415;-43
2023/01/10 02:09:24;;;;;;;9.52;4.28;;;;;;;;;;5006795;28;20200;-43
2023/01/10 02:11:50;;;;;;;14.20;4.97;;;;;;;;;;5007948;28;20251;-43
2023/01/10 02:14:16;;;;;;;7.97;4.35;;;;;;;;;;5011754;28;20404;-43
2023/01/10 02:16:42;;;;;;;8.02;4.00;;;;;;;;;;5012022;28;20191;-43
2023/01/10 02:19:15;;;;;;;11.67;3.90;;;;;;;;;;5006903;28;20212;-43
2023/01/10 02:21:51;;;;;;;6.50;4.88;;;;;;;;;;5012124;28;20419;-43
2023/01/10 02:24:30;;;;;;;15.68;3.92;;;;;;;;;;4997226;28;20666;-43
2023/01/10 02:27:00;;;;;;;6.82;3.58;;;;;;;;;;5010835;28;20513;-43
2023/01/10 02:29:25;;;;;;;12.77;4.50;;;;;;;;;;5011408;28;20204;-44
2023/01/10 02:31:51;;;;;;;20.00;4.40;;;;;;;;;;5007320;28;20181;-44
2023/01/10 02:34:36;;;;;;;7.87;3.43;;;;;;;;;;5011636;28;20767;-43
2023/01/10 02:37:11;;;;;;;7.70;4.00;;;;;;;;;;5009388;28;20697;-43
2023/01/10 02:39:39;;;;;;;8.60;3.80;;;;;;;;;;5007129;28;20465;-43
2023/01/10 02:42:11;;;;;;;5.45;3.45;;;;;;;;;;5011068;28;20171;-43
2023/01/10 02:44:37;;;;;;;11.68;3.40;;;;;;;;;;5011435;28;20271;-44
2023/01/10 02:47:04;;;;;;;11.77;4.67;;;;;;;;;;5007129;28;20649;-43
2023/01/10 02:49:30;;;;;;;3.13;2.83;;;;;;;;;;5011132;28;20435;-43
2023/01/10 02:51:56;;;;;;;8.63;3.58;;;;;;;;;;5011283;28;20215;-43
2023/01/10 02:54:24;;;;;;;8.40;4.13;;;;;;;;;;5011644;28;20550;-43
2023/01/10 02:57:09;;;;;;;11.03;3.17;;;;;;;;;;5011265;28;20419;-44
2023/01/10 02:59:50;;;;;;;7.43;3.00;;;;;;;;;;5008129;28;20468;-43
2023/01/10 03:02:23;;;;;;;12.57;3.30;;;;;;;;;;5004299;28;20166;-43
2023/01/10 03:04:55;;;;;;;5.45;3.42;;;;;;;;;;5011195;28;20230;-43
2023/01/10 03:07:27;;;;;;;11.18;3.40;;;;;;;;;;5004698;28;20182;-44
2023/01/10 03:10:00;;;;;;;6.32;3.40;;;;;;;;;;5010252;28;20213;-43
2023/01/10 03:12:25;;;;;;;16.23;3.00;;;;;;;;;;5010801;28;20192;-43
2023/01/10 03:14:53;;;;;;;14.37;4.03;;;;;;;;;;5007185;28;20180;-43
2023/01/10 03:17:20;;;;;;;17.08;3.83;;;;;;;;;;5010971;28;20929;-43
2023/01/10 03:19:48;;;;;;;8.50;3.45;;;;;;;;;;5006147;28;20212;-43
2023/01/10 03:22:14;;;;;;;10.57;3.85;;;;;;;;;;5013843;28;20169;-43
2023/01/10 03:24:42;;;;;;;12.10;3.05;;;;;;;;;;5014636;28;20168;-43
2023/01/10 03:27:14;;;;;;;5.28;2.72;;;;;;;;;;5014343;28;20250;-44
2023/01/10 03:29:51;;;;;;;8.25;2.97;;;;;;;;;;5010725;28;20560;-43
2023/01/10 03:32:19;;;;;;;15.80;3.65;;;;;;;;;;5013231;28;20211;-45
2023/01/10 03:34:45;;;;;;;12.18;3.20;;;;;;;;;;5007054;28;20180;-43
2023/01/10 03:37:23;;;;;;;9.23;2.92;;;;;;;;;;5013357;28;20198;-43
2023/01/10 03:39:49;;;;;;;6.25;3.20;;;;;;;;;;5014266;28;20258;-43
2023/01/10 03:44:42;;;;;;;8.23;3.40;;;;;;;;;;5010241;28;20208;-43
2023/01/10 03:45:24;;;;;;;14.73;4.03;;;;;;;;;;5002104;28;20470;-43
2023/01/10 03:47:52;;;;;;;5.70;3.83;;;;;;;;;;5014243;28;20173;-43
2023/01/10 03:50:20;;;;;;;14.95;4.50;;;;;;;;;;5014282;28;20195;-43
2023/01/10 03:52:46;;;;;;;17.23;4.40;;;;;;;;;;5011684;28;20549;-44
2023/01/10 03:55:14;;;;;;;11.20;4.05;;;;;;;;;;5014109;28;20206;-44
2023/01/10 03:57:44;;;;;;;10.00;3.95;;;;;;;;;;5009873;28;20222;-43
2023/01/10 04:00:11;;;;;;;10.70;4.35;;;;;;;;;;5011596;28;20240;-43
2023/01/10 04:02:37;;;;;;;11.65;4.15;;;;;;;;;;5006686;28;20543;-43
2023/01/10 04:05:03;;;;;;;6.60;4.30;;;;;;;;;;5013992;28;20180;-43
2023/01/10 04:07:29;;;;;;;8.48;3.92;;;;;;;;;;5011272;28;20412;-43
2023/01/10 04:09:55;;;;;;;9.23;4.23;;;;;;;;;;5013628;28;20196;-43
2023/01/10 04:12:21;;;;;;;6.50;3.37;;;;;;;;;;5011247;28;20414;-43
2023/01/10 04:14:47;;;;;;;10.50;4.60;;;;;;;;;;5010713;28;20498;-43
2023/01/10 04:17:14;;;;;;;13.30;5.00;;;;;;;;;;5013421;28;20426;-43
2023/01/10 04:19:40;;;;;;;14.63;4.30;;;;;;;;;;5013423;28;20212;-43
2023/01/10 04:22:06;;;;;;;10.40;4.40;;;;;;;;;;5011302;28;20173;-44
2023/01/10 04:24:32;;;;;;;6.47;3.90;;;;;;;;;;5013567;28;20211;-43
2023/01/10 04:26:58;;;;;;;14.05;5.18;;;;;;;;;;5007876;28;20185;-44
2023/01/10 04:29:25;;;;;;;13.07;3.60;;;;;;;;;;5012704;28;20208;-42
2023/01/10 04:31:51;;;;;;;13.13;4.60;;;;;;;;;;5012673;28;20172;-43
2023/01/10 04:34:18;;;;;;;7.70;3.30;;;;;;;;;;5013414;28;20172;-43
2023/01/10 04:36:45;;;;;;;11.30;3.90;;;;;;;;;;5011311;28;20180;-44
2023/01/10 04:39:11;;;;;;;13.13;4.75;;;;;;;;;;5012871;28;20215;-43
2023/01/10 04:41:37;;;;;;;6.27;3.63;;;;;;;;;;5007810;28;20184;-44
2023/01/10 04:44:03;;;;;;;11.50;4.07;;;;;;;;;;5005909;28;20412;-44
2023/01/10 04:46:29;;;;;;;5.93;3.78;;;;;;;;;;5012747;28;20179;-43
2023/01/10 04:48:57;;;;;;;19.33;5.43;;;;;;;;;;5012672;28;20201;-43
2023/01/10 04:51:23;;;;;;;5.82;3.10;;;;;;;;;;5012041;28;20431;-43
2023/01/10 04:53:48;;;;;;;10.20;3.90;;;;;;;;;;5010631;28;20177;-43
2023/01/10 04:56:17;;;;;;;15.73;3.63;;;;;;;;;;5012782;28;20478;-43
2023/01/10 04:58:43;;;;;;;13.13;5.32;;;;;;;;;;5012312;28;20886;-43
2023/01/10 05:01:09;;;;;;;10.53;4.43;;;;;;;;;;5005307;28;20298;-43
2023/01/10 05:03:35;;;;;;;3.90;2.60;;;;;;;;;;5010647;28;20416;-43
2023/01/10 05:06:01;;;;;;;7.60;2.77;;;;;;;;;;5012727;28;20242;-43
2023/01/10 05:08:28;;;;;;;6.87;3.40;;;;;;;;;;5009354;28;20575;-43
2023/01/10 05:10:54;;;;;;;12.25;3.92;;;;;;;;;;5010485;28;20407;-43
2023/01/10 05:13:19;;;;;;;19.30;5.60;;;;;;;;;;5012561;28;20176;-43
2023/01/10 05:15:45;;;;;;;10.53;3.20;;;;;;;;;;5012549;28;20498;-43
2023/01/10 05:18:11;;;;;;;8.87;3.80;;;;;;;;;;5010042;28;20473;-43
2023/01/10 05:20:37;;;;;;;9.83;3.17;;;;;;;;;;5012613;28;20462;-43
2023/01/10 05:23:03;;;;;;;14.27;3.73;;;;;;;;;;5007112;28;21280;-44
2023/01/10 05:25:29;;;;;;;10.57;3.40;;;;;;;;;;5012486;28;20416;-43
2023/01/10 05:27:55;;;;;;;12.67;4.17;;;;;;;;;;5011872;28;20410;-43
2023/01/10 05:30:21;;;;;;;9.13;3.30;;;;;;;;;;5012431;28;20833;-43
2023/01/10 05:32:47;;;;;;;10.37;3.60;;;;;;;;;;5010214;28;20817;-43
2023/01/10 05:35:13;;;;;;;11.93;3.90;;;;;;;;;;5012603;28;20412;-43
2023/01/10 05:37:39;;;;;;;10.73;3.27;;;;;;;;;;5006756;28;20883;-43
2023/01/10 05:40:05;;;;;;;8.15;3.90;;;;;;;;;;5011851;28;20472;-43
2023/01/10 05:42:31;;;;;;;11.73;3.38;;;;;;;;;;5011795;28;20182;-43
2023/01/10 05:44:57;;;;;;;11.90;3.40;;;;;;;;;;5010841;28;20181;-42
2023/01/10 05:47:24;;;;;;;8.40;3.53;;;;;;;;;;5011882;28;20399;-42
2023/01/10 05:49:50;;;;;;;9.90;3.92;;;;;;;;;;5011900;28;20434;-42
2023/01/10 05:52:16;;;;;;;12.35;3.63;;;;;;;;;;5010772;28;20596;-42
2023/01/10 05:54:42;;;;;;;10.53;3.90;;;;;;;;;;5011904;28;20180;-42
2023/01/10 05:57:08;;;;;;;20.10;3.83;;;;;;;;;;5011359;28;20463;-42
2023/01/10 05:59:34;;;;;;;6.80;3.60;;;;;;;;;;5011746;28;20471;-42
2023/01/10 06:02:00;;;;;;;16.48;3.22;;;;;;;;;;5008368;28;20427;-42
2023/01/10 06:04:26;;;;;;;11.33;3.30;;;;;;;;;;5011888;28;20652;-43
2023/01/10 06:06:52;;;;;;;14.70;3.40;;;;;;;;;;5011844;28;20953;-43
2023/01/10 06:09:17;;;;;;;7.20;3.30;;;;;;;;;;5004746;28;20439;-42
2023/01/10 06:11:44;;;;;;;14.63;3.00;;;;;;;;;;5011530;28;20465;-41
2023/01/10 06:14:10;;;;;;;16.88;3.95;;;;;;;;;;5005741;28;20411;-42
2023/01/10 06:16:36;;;;;;;11.63;4.53;;;;;;;;;;5008314;28;20193;-42
2023/01/10 06:19:01;;;;;;;13.63;3.60;;;;;;;;;;5011254;28;20469;-42
2023/01/10 06:21:27;;;;;;;11.33;3.37;;;;;;;;;;5007219;28;20508;-42
2023/01/10 06:23:53;;;;;;;11.10;4.00;;;;;;;;;;5009463;28;20417;-41
2023/01/10 06:26:19;;;;;;;14.53;4.17;;;;;;;;;;5011733;28;20478;-43
2023/01/10 06:28:45;;;;;;;7.07;3.33;;;;;;;;;;5008662;28;20435;-42
2023/01/10 06:31:13;;;;;;;18.10;3.80;;;;;;;;;;5011263;28;20191;-43
2023/01/10 06:33:40;;;;;;;13.25;4.90;;;;;;;;;;5005838;28;20422;-41
2023/01/10 06:36:06;;;;;;;14.57;4.10;;;;;;;;;;5010965;28;20184;-42
2023/01/10 06:38:33;;;;;;;12.23;4.63;;;;;;;;;;5010548;28;20207;-43
2023/01/10 06:41:11;;;;;;;22.90;5.72;;;;;;;;;;5008231;28;20260;-46
2023/01/10 06:43:37;;;;;;;11.60;3.80;;;;;;;;;;5011175;28;20172;-42
2023/01/10 06:46:03;;;;;;;11.37;4.23;;;;;;;;;;5010968;28;20681;-42
2023/01/10 06:48:29;;;;;;;15.37;4.60;;;;;;;;;;5005768;28;20446;-42
2023/01/10 06:50:55;;;;;;;16.63;4.93;;;;;;;;;;5004330;28;20819;-43
2023/01/10 06:53:21;;;;;;;22.43;4.80;;;;;;;;;;5011218;28;20798;-43
2023/01/10 06:55:47;;;;;;;16.30;4.40;;;;;;;;;;5014670;28;20907;-42
2023/01/10 06:58:17;;;;;;;11.57;4.83;;;;;;;;;;5014036;28;20989;-42
2023/01/10 07:00:44;;;;;;;16.05;3.78;;;;;;;;;;5014617;28;20930;-43
2023/01/10 07:03:10;;;;;;;11.80;4.27;;;;;;;;;;5012442;28;20334;-43
2023/01/10 07:05:36;;;;;;;17.67;4.40;;;;;;;;;;5010154;28;20403;-42
2023/01/10 07:08:02;;;;;;;12.60;4.07;;;;;;;;;;5013944;28;20613;-41
2023/01/10 07:10:28;;;;;;;17.93;5.37;;;;;;;;;;5012997;28;20445;-42
2023/01/10 07:12:54;;;;;;;25.15;6.75;;;;;;;;;;5012700;28;20447;-42
2023/01/10 07:15:20;;;;;;;16.40;4.18;;;;;;;;;;5009822;28;20212;-43
2023/01/10 07:17:46;;;;;;;14.53;4.33;;;;;;;;;;5014196;28;20220;-42
2023/01/10 07:20:12;;;;;;;18.77;4.80;;;;;;;;;;5013692;28;20473;-41
2023/01/10 07:22:38;;;;;;;17.05;4.82;;;;;;;;;;5013328;28;20414;-41
2023/01/10 07:25:05;;;;;;;13.13;4.20;;;;;;;;;;5013789;28;20200;-42
2023/01/10 07:27:31;;;;;;;20.83;4.68;;;;;;;;;;5014307;28;20177;-41
2023/01/10 07:29:57;;;;;;;12.85;4.32;;;;;;;;;;5009575;28;20204;-41
2023/01/10 07:32:24;;;;;;;14.82;4.82;;;;;;;;;;5014490;28;20552;-41
2023/01/10 07:34:49;;;;;;;13.15;4.95;;;;;;;;;;5006245;28;20665;-41
2023/01/10 07:37:15;;;;;;;16.90;5.70;;;;;;;;;;5012562;28;20176;-42
2023/01/10 07:39:41;;;;;;;25.80;5.60;;;;;;;;;;5014245;28;20810;-41
2023/01/10 07:42:10;;;;;;;18.00;5.47;;;;;;;;;;5014355;28;20168;-42
2023/01/10 07:44:36;;;;;;;10.30;5.28;;;;;;;;;;5010103;28;20403;-41
2023/01/10 07:47:02;;;;;;;16.83;5.20;;;;;;;;;;5007651;28;20523;-41
2023/01/10 07:49:28;;;;;;;13.03;5.80;;;;;;;;;;5014029;28;20442;-42
2023/01/10 07:51:54;;;;;;;14.37;4.53;;;;;;;;;;5014002;28;20435;-41
2023/01/10 07:54:20;;;;;;;18.43;4.23;;;;;;;;;;5011104;28;20450;-42
2023/01/10 07:56:46;;;;;;;15.07;5.40;;;;;;;;;;5013671;28;20786;-42
2023/01/10 07:59:13;;;;;;;13.73;5.10;;;;;;;;;;5011309;28;20200;-42
2023/01/10 08:01:39;;;;;;;8.20;4.57;;;;;;;;;;5012215;28;20512;-41
2023/01/10 08:04:05;;;;;;;13.98;4.93;;;;;;;;;;5012769;28;20176;-42
2023/01/10 08:06:31;;;;;;;16.88;5.43;;;;;;;;;;5012198;28;20185;-41
2023/01/10 08:08:57;;;;;;;13.83;5.50;;;;;;;;;;5013164;28;20204;-42
2023/01/10 08:11:23;;;;;;;9.30;6.00;;;;;;;;;;5011688;28;20502;-43
2023/01/10 08:13:49;;;;;;;20.93;5.23;;;;;;;;;;5006493;28;20424;-42
2023/01/10 08:16:15;;;;;;;16.53;4.40;;;;;;;;;;5013143;28;20415;-40
2023/01/10 08:18:42;;;;;;;8.17;4.33;;;;;;;;;;5011241;28;20504;-42
2023/01/10 08:21:08;;;;;;;15.00;4.68;;;;;;;;;;5012830;28;20409;-42
2023/01/10 08:23:34;;;;;;;26.30;6.05;;;;;;;;;;5012859;28;20181;-44
2023/01/10 08:26:01;;;;;;;10.25;5.05;;;;;;;;;;5008182;28;20567;-42
2023/01/10 08:28:27;;;;;;;17.20;5.38;;;;;;;;;;5012706;28;20327;-42
2023/01/10 08:30:54;;;;;;;16.20;6.32;;;;;;;;;;5004732;28;20193;-42
2023/01/10 08:33:22;;;;;;;23.93;6.97;;;;;;;;;;5011162;28;20539;-42
2023/01/10 08:35:48;;;;;;;21.10;5.65;;;;;;;;;;5012559;28;20499;-42
2023/01/10 08:38:14;;;;;;;26.37;5.80;;;;;;;;;;5011631;28;20664;-42
2023/01/10 08:40:40;;;;;;;19.60;6.40;;;;;;;;;;5009122;28;20442;-42
2023/01/10 08:43:07;;;;;;;25.10;6.07;;;;;;;;;;5012983;28;20412;-41
2023/01/10 08:45:34;;;;;;;13.85;5.63;;;;;;;;;;5005279;28;20451;-42
2023/01/10 08:48:00;;;;;;;14.85;4.97;;;;;;;;;;5011267;28;20238;-42
2023/01/10 08:50:26;;;;;;;20.43;5.93;;;;;;;;;;5012892;28;20183;-42
2023/01/10 08:52:52;;;;;;;16.63;5.38;;;;;;;;;;5008368;28;20410;-42
2023/01/10 08:55:19;;;;;;;21.87;5.17;;;;;;;;;;5010223;28;20587;-42
2023/01/10 08:57:45;;;;;;;13.13;5.78;;;;;;;;;;5009763;28;20765;-42
2023/01/10 09:00:12;;;;;;;24.33;5.90;;;;;;;;;;5004902;28;20204;-42
2023/01/10 09:02:39;;;;;;;20.30;5.47;;;;;;;;;;5012270;28;20411;-41
2023/01/10 09:05:05;;;;;;;10.53;5.07;;;;;;;;;;5011949;28;20172;-42
2023/01/10 09:07:31;;;;;;;25.65;5.80;;;;;;;;;;5007432;28;20497;-42
2023/01/10 09:09:57;;;;;;;19.43;4.67;;;;;;;;;;5011681;28;20236;-43
2023/01/10 09:15:08;;;;;;;14.30;4.70;;;;;;;;;;5010611;28;20530;-42
2023/01/10 09:17:34;;;;;;;15.07;4.60;;;;;;;;;;5011196;28;20172;-43
2023/01/10 09:19:59;;;;;;;18.23;5.00;;;;;;;;;;5011582;28;20208;-42
2023/01/10 09:22:26;;;;;;;12.20;4.33;;;;;;;;;;5007400;28;20557;-42
2023/01/10 09:24:52;;;;;;;8.80;4.43;;;;;;;;;;5011553;28;20922;-42
2023/01/10 09:27:18;;;;;;;20.77;5.00;;;;;;;;;;5003776;28;20169;-43
2023/01/10 09:29:44;;;;;;;15.47;4.97;;;;;;;;;;5010488;28;20544;-45
2023/01/10 09:32:10;;;;;;;16.27;4.80;;;;;;;;;;5010949;28;20415;-41
2023/01/10 09:34:36;;;;;;;14.27;4.68;;;;;;;;;;5007864;28;20506;-41
2023/01/10 09:37:02;;;;;;;17.30;5.30;;;;;;;;;;5011038;28;20614;-43
2023/01/10 09:39:28;;;;;;;18.10;4.57;;;;;;;;;;5011560;28;20466;-42
2023/01/10 09:42:00;;;;;;;17.43;5.70;;;;;;;;;;5004355;28;20465;-40
2023/01/10 09:44:45;;;;;;;20.00;4.75;;;;;;;;;;5010950;28;20411;-41
2023/01/10 09:47:17;;;;;;;17.35;5.07;;;;;;;;;;5006747;28;20179;-41
2023/01/10 09:49:51;;;;;;;10.02;5.00;;;;;;;;;;5007644;28;20366;-42
2023/01/10 09:52:26;;;;;;;20.07;5.30;;;;;;;;;;5010950;28;20523;-42
2023/01/10 09:54:53;;;;;;;9.90;5.10;;;;;;;;;;5011906;28;20494;-42
2023/01/10 09:57:21;;;;;;;16.30;5.13;;;;;;;;;;5005925;28;20427;-41
2023/01/10 09:59:49;;;;;;;15.60;5.20;;;;;;;;;;4992137;28;20501;-41
2023/01/10 10:02:23;;;;;;;17.67;4.53;;;;;;;;;;4992263;28;20405;-41
2023/01/10 10:05:09;;;;;;;15.67;5.17;;;;;;;;;;4992432;28;20478;-42
2023/01/10 10:07:35;;;;;;;13.33;5.30;;;;;;;;;;4992249;28;20400;-42
2023/01/10 10:10:01;;;;;;;16.33;5.50;;;;;;;;;;4992266;28;20472;-42
2023/01/10 10:12:27;;;;;;;15.03;4.83;;;;;;;;;;5007347;28;20472;-43
2023/01/10 10:15:05;;;;;;;19.97;5.03;;;;;;;;;;5011904;28;20844;-41
2023/01/10 10:17:31;;;;;;;14.03;5.33;;;;;;;;;;5011588;28;20447;-41
2023/01/10 10:20:09;;;;;;;21.60;5.30;;;;;;;;;;5011526;28;20981;-41
2023/01/10 10:22:54;;;;;;;19.03;5.63;;;;;;;;;;5012216;28;20422;-41
2023/01/10 10:25:23;;;;;;;9.73;3.90;;;;;;;;;;5011776;28;20413;-41
2023/01/10 10:28:04;;;;;;;14.00;4.33;;;;;;;;;;5012672;28;20505;-43
2023/01/10 10:30:42;;;;;;;14.23;5.73;;;;;;;;;;5015771;28;20920;-41
2023/01/10 10:33:34;;;;;;;14.27;4.00;;;;;;;;;;5015630;28;20387;-40
2023/01/10 10:36:03;;;;;;;10.30;4.27;;;;;;;;;;5011773;28;20447;-42
2023/01/10 10:38:31;;;;;;;15.23;4.80;;;;;;;;;;5015157;28;20494;-41
2023/01/10 10:40:59;;;;;;;18.60;4.40;;;;;;;;;;5015523;28;20468;-42
2023/01/10 10:43:30;;;;;;;15.97;4.17;;;;;;;;;;5015456;28;20419;-41
2023/01/10 10:46:05;;;;;;;16.90;3.47;;;;;;;;;;5015456;28;20954;-42
2023/01/10 10:48:34;;;;;;;18.57;5.03;;;;;;;;;;5015003;28;20802;-42
2023/01/10 10:51:06;;;;;;;9.93;4.47;;;;;;;;;;5015193;28;20482;-41
2023/01/10 10:53:33;;;;;;;16.47;4.33;;;;;;;;;;5015256;28;20414;-42
2023/01/10 10:55:59;;;;;;;18.33;4.03;;;;;;;;;;5010641;28;20420;-43
2023/01/10 10:58:29;;;;;;;21.80;4.40;;;;;;;;;;4995093;28;20979;-41
2023/01/10 11:00:55;;;;;;;16.80;4.20;;;;;;;;;;4995558;28;20447;-41
2023/01/10 11:03:44;;;;;;;18.63;4.03;;;;;;;;;;5009634;28;20455;-43
2023/01/10 11:06:10;;;;;;;15.27;3.90;;;;;;;;;;5015012;28;20848;-42
2023/01/10 11:08:40;;;;;;;20.63;4.37;;;;;;;;;;5014681;28;20521;-43
2023/01/10 11:11:11;;;;;;;14.77;3.90;;;;;;;;;;5014943;28;20418;-42
2023/01/10 11:13:43;;;;;;;10.60;3.50;;;;;;;;;;5014773;28;20429;-42
2023/01/10 11:16:22;;;;;;;12.70;4.00;;;;;;;;;;5015182;28;20469;-41
2023/01/10 11:19:07;;;;;;;17.73;4.17;;;;;;;;;;5014355;28;20572;-41
2023/01/10 11:21:33;;;;;;;19.50;3.97;;;;;;;;;;5015176;28;20457;-42
2023/01/10 11:23:59;;;;;;;12.67;4.20;;;;;;;;;;5014464;28;20447;-42
2023/01/10 11:26:51;;;;;;;9.50;4.00;;;;;;;;;;5014642;28;20414;-42
2023/01/10 11:29:32;;;;;;;13.67;5.10;;;;;;;;;;5011332;28;20530;-43
2023/01/10 11:31:59;;;;;;;15.87;4.43;;;;;;;;;;5014563;28;20906;-43
2023/01/10 11:34:35;;;;;;;24.87;3.50;;;;;;;;;;5014472;28;20431;-43
2023/01/10 11:37:03;;;;;;;13.03;3.63;;;;;;;;;;5014474;28;20473;-43
2023/01/10 11:39:29;;;;;;;12.33;4.90;;;;;;;;;;4996133;28;20478;-42
2023/01/10 11:41:58;;;;;;;12.60;4.30;;;;;;;;;;5014382;28;20429;-43
2023/01/10 11:44:25;;;;;;;17.00;4.40;;;;;;;;;;5014848;28;20414;-45
2023/01/10 11:46:59;;;;;;;18.67;4.97;;;;;;;;;;5014196;28;20419;-45
2023/01/10 11:49:36;;;;;;;15.63;4.60;;;;;;;;;;5014111;28;21039;-46
2023/01/10 11:52:04;;;;;;;14.37;4.23;;;;;;;;;;5014256;28;20441;-45
2023/01/10 11:54:31;;;;;;;18.60;4.63;;;;;;;;;;5014273;28;20864;-44
2023/01/10 11:57:06;;;;;;;10.33;3.53;;;;;;;;;;4996601;28;20517;-45
2023/01/10 11:59:32;;;;;;;18.20;3.83;;;;;;;;;;4994083;28;20455;-44
2023/01/10 12:02:13;;;;;;;15.07;3.80;;;;;;;;;;5011094;28;20857;-43
2023/01/10 12:04:41;;;;;;;18.43;4.20;;;;;;;;;;4997025;28;20442;-45
2023/01/10 12:07:09;;;;;;;10.63;3.90;;;;;;;;;;5004189;28;20423;-44
2023/01/10 12:09:35;;;;;;;19.47;4.30;;;;;;;;;;5013219;28;20441;-43
2023/01/10 12:12:05;;;;;;;7.33;3.03;;;;;;;;;;5008002;28;20417;-44
2023/01/10 12:14:31;;;;;;;14.80;4.33;;;;;;;;;;5013800;28;20436;-44
2023/01/10 12:17:02;;;;;;;18.70;3.93;;;;;;;;;;5013316;28;20901;-44
2023/01/10 12:19:28;;;;;;;12.73;4.47;;;;;;;;;;5011776;28;20571;-44
2023/01/10 12:21:55;;;;;;;20.67;4.57;;;;;;;;;;4996268;28;20949;-44
2023/01/10 12:24:23;;;;;;;24.63;4.47;;;;;;;;;;5013633;28;20421;-44
2023/01/10 12:26:52;;;;;;;14.87;3.40;;;;;;;;;;5007994;28;20422;-44
2023/01/10 12:29:21;;;;;;;15.83;3.77;;;;;;;;;;5013554;28;20519;-43
2023/01/10 12:31:48;;;;;;;12.70;3.73;;;;;;;;;;5013576;28;20421;-45
2023/01/10 12:34:19;;;;;;;12.67;3.23;;;;;;;;;;5011637;28;20429;-44
2023/01/10 12:37:04;;;;;;;19.70;3.60;;;;;;;;;;5013579;28;20421;-45
2023/01/10 12:39:33;;;;;;;20.20;4.37;;;;;;;;;;5010359;28;21030;-45
2023/01/10 12:45:05;;;;;;;13.60;3.30;;;;;;;;;;5013650;28;20500;-44
2023/01/10 12:47:55;;;;;;;16.73;2.77;;;;;;;;;;5013244;28;20405;-45
2023/01/10 12:50:26;;;;;;;9.70;3.10;;;;;;;;;;5007135;28;20429;-44
2023/01/10 12:53:02;;;;;;;11.67;3.33;;;;;;;;;;5013299;28;20415;-45
2023/01/10 12:55:39;;;;;;;11.20;3.20;;;;;;;;;;5008998;28;20428;-46
2023/01/10 12:58:05;;;;;;;14.27;3.57;;;;;;;;;;5005683;28;20425;-44
2023/01/10 13:00:42;;;;;;;16.10;3.47;;;;;;;;;;5013722;28;20785;-44
2023/01/10 13:03:18;;;;;;;9.23;3.60;;;;;;;;;;5013411;28;20422;-45
2023/01/10 13:05:47;;;;;;;21.70;3.80;;;;;;;;;;5012934;28;20419;-43
2023/01/10 13:08:15;;;;;;;17.37;4.03;;;;;;;;;;5012548;28;20531;-45
2023/01/10 13:10:42;;;;;;;18.07;3.77;;;;;;;;;;5012893;28;20770;-44
2023/01/10 13:13:26;;;;;;;8.23;3.00;;;;;;;;;;5012947;28;20462;-44
2023/01/10 13:15:52;;;;;;;9.67;2.50;;;;;;;;;;5012614;28;20406;-46
2023/01/10 13:18:26;;;;;;;16.57;3.63;;;;;;;;;;5012297;28;20432;-45
2023/01/10 13:21:12;;;;;;;18.50;2.80;;;;;;;;;;5012598;28;20936;-45
2023/01/10 13:23:59;;;;;;;18.97;3.97;;;;;;;;;;5012951;28;20961;-43
2023/01/10 13:26:25;;;;;;;17.10;2.83;;;;;;;;;;5012484;28;20410;-45
2023/01/10 13:28:59;;;;;;;10.00;2.63;;;;;;;;;;5011823;28;20447;-44
2023/01/10 13:31:32;;;;;;;11.80;3.97;;;;;;;;;;5011751;28;20420;-44
2023/01/10 13:34:10;;;;;;;9.63;3.00;;;;;;;;;;5012332;28;20906;-46
2023/01/10 13:36:37;;;;;;;10.17;3.30;;;;;;;;;;5011794;28;20774;-45
2023/01/10 13:39:07;;;;;;;10.80;3.27;;;;;;;;;;5011461;28;20535;-44
2023/01/10 13:44:55;;;;;;;10.17;3.40;;;;;;;;;;5012288;28;20399;-46
2023/01/10 13:47:40;;;;;;;10.57;2.90;;;;;;;;;;5011992;28;20424;-46
2023/01/10 13:50:32;;;;;;;4.90;2.00;;;;;;;;;;5012092;28;20455;-45
2023/01/10 13:53:01;;;;;;;18.40;3.80;;;;;;;;;;5002124;28;20437;-44
2023/01/10 13:55:33;;;;;;;19.63;4.23;;;;;;;;;;5006028;28;20417;-44
2023/01/10 14:02:27;;;;;;;10.73;2.47;;;;;;;;;;4991085;28;20474;-44
2023/01/10 14:04:17;;;;;;;20.70;3.00;;;;;;;;;;4990972;28;20427;-46
2023/01/10 14:06:43;;;;;;;4.97;2.30;;;;;;;;;;4992799;28;20420;-44
2023/01/10 14:09:12;;;;;;;9.93;2.50;;;;;;;;;;4991942;28;20429;-45
2023/01/10 14:11:44;;;;;;;10.00;2.90;;;;;;;;;;4992240;28;20417;-45
2023/01/10 14:14:22;;;;;;;4.90;2.70;;;;;;;;;;4992247;28;20402;-46
2023/01/10 14:16:58;;;;;;;5.57;2.40;;;;;;;;;;4992261;28;20406;-45
2023/01/10 14:19:27;;;;;;;9.13;2.77;;;;;;;;;;4991876;28;20474;-45
2023/01/10 14:21:54;;;;;;;13.10;2.63;;;;;;;;;;5008156;28;20774;-45
2023/01/10 14:24:40;;;;;;;16.33;3.50;;;;;;;;;;5011728;28;20418;-44
2023/01/10 14:27:07;;;;;;;7.37;2.27;;;;;;;;;;5011290;28;20451;-44
2023/01/10 14:29:33;;;;;;;11.53;3.30;;;;;;;;;;5011393;28;20444;-46
2023/01/10 14:32:00;;;;;;;8.47;2.83;;;;;;;;;;5011739;28;20444;-45
2023/01/10 14:34:30;;;;;;;15.47;3.33;;;;;;;;;;5011933;28;20421;-44
2023/01/10 14:37:01;;;;;;;9.57;2.30;;;;;;;;;;5011494;28;20489;-45
2023/01/10 14:39:28;;;;;;;8.87;2.60;;;;;;;;;;5011205;28;21000;-45
2023/01/10 14:41:59;;;;;;;5.07;2.20;;;;;;;;;;5011504;28;20437;-46
2023/01/10 14:44:43;;;;;;;12.80;2.20;;;;;;;;;;5011659;28;20458;-44
2023/01/10 14:47:26;;;;;;;11.27;3.57;;;;;;;;;;5011520;28;20421;-44
2023/01/10 14:49:54;;;;;;;6.30;2.63;;;;;;;;;;5011442;28;20439;-44
2023/01/10 14:52:22;;;;;;;8.97;2.50;;;;;;;;;;5011453;28;20491;-44
2023/01/10 14:54:54;;;;;;;5.73;2.10;;;;;;;;;;5011495;28;20440;-46
2023/01/10 14:57:21;;;;;;;8.10;2.80;;;;;;;;;;5003015;28;20422;-44
2023/01/10 14:59:48;;;;;;;9.60;2.70;;;;;;;;;;4991695;28;20467;-46
2023/01/10 15:02:23;;;;;;;18.37;2.63;;;;;;;;;;4990776;28;20849;-45
2023/01/10 15:04:54;;;;;;;6.60;2.40;;;;;;;;;;5011035;28;20401;-47